Kosmos — WDC9987 — position and weather

sailwx.info

Track history (hours):
 
Tides and Currents Weather Stations Pressure Air Temp Water Temp Dewpoint Dewpoint Depression Visibility Wind Speed Wind Dir Waves Ship Positions

Kosmos

Owner: Grab, Eric W, San Diego, CA. More information available from US FCC via Universal Licensing System and Coast Guard Vessel Documentation Center.

Last reported at 2017-Sep-25 19:45 UTC. Time now 2017-Oct-20 01:19 UTC.
Position N 37°35' W 122°15'.
Warning: this ship's position is 24 days out of date.

Length 13 m.

Type: Pleasure craft. MMSI: 367109510.

Date/timePositionNaut miles runAvg speedWind from/ knotsBaromVisibWave heightAir tempDewpointWater temp
2017-Sep-25 19:45N 37°35' W 122°15'2 7.7
2017-Sep-25 19:30N 37°37' W 122°17'4 7.5
2017-Sep-25 19:00N 37°40' W 122°20'4 7.7
2017-Sep-25 18:30N 37°43' W 122°21'4 7.9
2017-Sep-25 17:58N 37°47' W 122°23'3 6.2
2017-Sep-25 17:30N 37°49' W 122°26'3 6.0
2017-Sep-25 16:59N 37°49' W 122°30'177 5.6
2017-Sep-24 09:28N 35°05' W 121°06'3 6.3
2017-Sep-24 09:00N 35°02' W 121°04'3 6.0
2017-Sep-24 08:30N 34°60' W 121°03'3 5.6
2017-Sep-24 07:59N 34°57' W 121°01'3 5.6
2017-Sep-24 07:30N 34°54' W 120°60'3 5.4
2017-Sep-24 07:00N 34°52' W 120°58'3 5.5
2017-Sep-24 06:30N 34°49' W 120°57'3 5.3
2017-Sep-24 06:00N 34°47' W 120°55'3 5.4
2017-Sep-24 05:30N 34°45' W 120°54'3 5.5
2017-Sep-24 04:56N 34°42' W 120°52'3 5.5
2017-Sep-24 04:27N 34°39' W 120°51'3 5.4
2017-Sep-24 03:54N 34°37' W 120°50'4 5.1
2017-Sep-24 03:07N 34°33' W 120°47'1 5.1
2017-Sep-24 03:00N 34°33' W 120°47'3 5.2
2017-Sep-24 02:30N 34°30' W 120°46'3 5.0
2017-Sep-24 02:00N 34°28' W 120°44'2 4.9
2017-Sep-24 01:30N 34°26' W 120°43'2 4.6
2017-Sep-24 01:00N 34°25' W 120°41'3 5.2
2017-Sep-24 00:30N 34°24' W 120°38'3 5.3
2017-Sep-24 00:00N 34°23' W 120°35'3 5.3
2017-Sep-23 23:30N 34°22' W 120°32'3 5.3
2017-Sep-23 23:00N 34°22' W 120°29'3 5.5
2017-Sep-23 22:30N 34°21' W 120°25'3 5.1
2017-Sep-23 22:00N 34°20' W 120°22'2 4.9
2017-Sep-23 21:30N 34°20' W 120°20'3 4.9
2017-Sep-23 20:52N 34°19' W 120°16'2 5.4
2017-Sep-23 20:27N 34°18' W 120°13'5 5.9
2017-Sep-23 19:39N 34°17' W 120°08'  
2017-Sep-17 08:05N 33°06' W 117°51'0 5.9
2017-Sep-17 08:00N 33°05' W 117°50'3 6.0
2017-Sep-17 07:30N 33°03' W 117°48'3 6.3
2017-Sep-17 07:00N 33°01' W 117°45'3 6.6
2017-Sep-17 06:31N 32°59' W 117°42'3 6.5
2017-Sep-17 06:00N 32°57' W 117°39'3 6.5
2017-Sep-17 05:30N 32°54' W 117°36'3 6.7
2017-Sep-17 05:00N 32°52' W 117°33'3 6.6
2017-Sep-17 04:30N 32°50' W 117°31'3 6.5
2017-Sep-17 04:00N 32°48' W 117°28'3 6.3
2017-Sep-17 03:30N 32°45' W 117°25'3 6.0
2017-Sep-17 03:00N 32°43' W 117°22'  
Track history (hours):
 
Tides and Currents Weather Stations Pressure Air Temp Water Temp Dewpoint Dewpoint Depression Visibility Wind Speed Wind Dir Waves Ship Positions

Kosmos

Owner: Grab, Eric W, San Diego, CA. More information available from US FCC via Universal Licensing System and Coast Guard Vessel Documentation Center.

Last reported at 2017-Sep-25 19:45 UTC. Time now 2017-Oct-20 01:19 UTC.
Position N 37°35' W 122°15'.
Warning: this ship's position is 24 days out of date.

Length 13 m.

Type: Pleasure craft. MMSI: 367109510.

Date/timePositionNaut miles runAvg speedWind from/ knotsBaromVisibWave heightAir tempDewpointWater temp
2017-Sep-25 19:45N 37°35' W 122°15'2 7.7
2017-Sep-25 19:30N 37°37' W 122°17'4 7.5
2017-Sep-25 19:00N 37°40' W 122°20'4 7.7
2017-Sep-25 18:30N 37°43' W 122°21'4 7.9
2017-Sep-25 17:58N 37°47' W 122°23'3 6.2
2017-Sep-25 17:30N 37°49' W 122°26'3 6.0
2017-Sep-25 16:59N 37°49' W 122°30'177 5.6
2017-Sep-24 09:28N 35°05' W 121°06'3 6.3
2017-Sep-24 09:00N 35°02' W 121°04'3 6.0
2017-Sep-24 08:30N 34°60' W 121°03'3 5.6
2017-Sep-24 07:59N 34°57' W 121°01'3 5.6
2017-Sep-24 07:30N 34°54' W 120°60'3 5.4
2017-Sep-24 07:00N 34°52' W 120°58'3 5.5
2017-Sep-24 06:30N 34°49' W 120°57'3 5.3
2017-Sep-24 06:00N 34°47' W 120°55'3 5.4
2017-Sep-24 05:30N 34°45' W 120°54'3 5.5
2017-Sep-24 04:56N 34°42' W 120°52'3 5.5
2017-Sep-24 04:27N 34°39' W 120°51'3 5.4
2017-Sep-24 03:54N 34°37' W 120°50'4 5.1
2017-Sep-24 03:07N 34°33' W 120°47'1 5.1
2017-Sep-24 03:00N 34°33' W 120°47'3 5.2
2017-Sep-24 02:30N 34°30' W 120°46'3 5.0
2017-Sep-24 02:00N 34°28' W 120°44'2 4.9
2017-Sep-24 01:30N 34°26' W 120°43'2 4.6
2017-Sep-24 01:00N 34°25' W 120°41'3 5.2
2017-Sep-24 00:30N 34°24' W 120°38'3 5.3
2017-Sep-24 00:00N 34°23' W 120°35'3 5.3
2017-Sep-23 23:30N 34°22' W 120°32'3 5.3
2017-Sep-23 23:00N 34°22' W 120°29'3 5.5
2017-Sep-23 22:30N 34°21' W 120°25'3 5.1
2017-Sep-23 22:00N 34°20' W 120°22'2 4.9
2017-Sep-23 21:30N 34°20' W 120°20'3 4.9
2017-Sep-23 20:52N 34°19' W 120°16'2 5.4
2017-Sep-23 20:27N 34°18' W 120°13'5 5.9
2017-Sep-23 19:39N 34°17' W 120°08'  
2017-Sep-17 08:05N 33°06' W 117°51'0 5.9
2017-Sep-17 08:00N 33°05' W 117°50'3 6.0
2017-Sep-17 07:30N 33°03' W 117°48'3 6.3
2017-Sep-17 07:00N 33°01' W 117°45'3 6.6
2017-Sep-17 06:31N 32°59' W 117°42'3 6.5
2017-Sep-17 06:00N 32°57' W 117°39'3 6.5
2017-Sep-17 05:30N 32°54' W 117°36'3 6.7
2017-Sep-17 05:00N 32°52' W 117°33'3 6.6
2017-Sep-17 04:30N 32°50' W 117°31'3 6.5
2017-Sep-17 04:00N 32°48' W 117°28'3 6.3
2017-Sep-17 03:30N 32°45' W 117°25'3 6.0
2017-Sep-17 03:00N 32°43' W 117°22'  

Dump ship's entire track history